Time;durP1;ratioP1;P1;durP2;ratioP2;P2;SDS_P1;SDS_P2;PMS_P1;PMS_P2;Temp;Humidity;BMP_temperature;BMP_pressure;BME280_temperature;BME280_humidity;BME280_pressure;Samples;Min_cycle;Max_cycle;Signal;HPM_P1;HPM_P2
2022/06/24 00:03:31;;;;;;;;;;;;;;;18.45;89.67;98641.81;7766337;30;19962;-75
2022/06/24 00:07:43;;;;;;;;;;;;;;;18.33;89.82;98640.63;7765474;30;19939;-75
2022/06/24 00:11:44;;;;;;;;;;;;;;;18.20;90.37;98625.50;7763938;30;19935;-74
2022/06/24 00:15:46;;;;;;;;;;;;;;;18.10;90.79;98640.84;7763446;30;19982;-75
2022/06/24 00:19:54;;;;;;;;;;;;;;;18.03;90.97;98637.66;7769259;30;20008;-74
2022/06/24 00:23:55;;;;;;;;;;;;;;;17.98;91.23;98623.06;7766601;30;20238;-75
2022/06/24 00:28:03;;;;;;;;;;;;;;;17.91;91.64;98624.25;7771324;30;20251;-75
2022/06/24 00:32:05;;;;;;;;;;;;;;;17.77;91.78;98627.50;7779554;30;19935;-74
2022/06/24 00:36:07;;;;;;;;;;;;;;;17.81;92.36;98623.84;7789726;30;20327;-75
2022/06/24 00:40:08;;;;;;;;;;;;;;;17.83;92.69;98614.09;7799181;30;19935;-75
2022/06/24 00:44:11;;;;;;;;;;;;;;;17.94;92.49;98619.69;7799247;30;20061;-75
2022/06/24 00:48:14;;;;;;;;;;;;;;;17.91;92.06;98624.25;7777229;30;19978;-75
2022/06/24 00:52:16;;;;;;;;;;;;;;;17.81;92.05;98613.34;7783554;30;19935;-75
2022/06/24 00:56:18;;;;;;;;;;;;;;;17.76;92.04;98617.91;7783716;30;19941;-74
2022/06/24 01:00:22;;;;;;;;;;;;;;;17.71;92.10;98612.88;7792187;30;20027;-75
2022/06/24 01:04:30;;;;;;;;;;;;;;;17.74;92.42;98622.41;7782707;30;19942;-75
2022/06/24 01:08:31;;;;;;;;;;;;;;;17.70;92.36;98621.69;7794679;30;20263;-75
2022/06/24 01:12:33;;;;;;;;;;;;;;;17.70;91.95;98632.19;7798406;30;19934;-75
2022/06/24 01:16:34;;;;;;;;;;;;;;;17.67;91.56;98624.44;7795685;30;19962;-74
2022/06/24 01:20:37;;;;;;;;;;;;;;;17.71;91.85;98628.63;7779362;30;19986;-75
2022/06/24 01:24:44;;;;;;;;;;;;;;;17.66;91.86;98627.13;7795883;30;20044;-75
2022/06/24 01:28:47;;;;;;;;;;;;;;;17.62;91.90;98620.31;7797985;30;19935;-74
2022/06/24 01:32:48;;;;;;;;;;;;;;;17.56;92.42;98618.78;7776829;30;19943;-74
2022/06/24 01:36:50;;;;;;;;;;;;;;;17.59;92.10;98623.91;7797307;30;20030;-75
2022/06/24 01:40:52;;;;;;;;;;;;;;;17.53;92.38;98626.81;7798579;30;20815;-74
2022/06/24 01:44:53;;;;;;;;;;;;;;;17.57;92.62;98610.00;7779942;30;20434;-74
2022/06/24 01:48:55;;;;;;;;;;;;;;;17.56;92.32;98607.44;7793967;30;20943;-74
2022/06/24 01:52:56;;;;;;;;;;;;;;;17.53;92.96;98611.06;7797320;30;20025;-75
2022/06/24 01:56:58;;;;;;;;;;;;;;;17.54;92.95;98612.75;7771140;30;20248;-75
2022/06/24 02:00:59;;;;;;;;;;;;;;;17.51;93.20;98613.75;7793747;30;19935;-74
2022/06/24 02:05:00;;;;;;;;;;;;;;;17.53;93.79;98592.69;7800623;30;19986;-75
2022/06/24 02:09:03;;;;;;;;;;;;;;;17.61;93.52;98584.47;7799574;30;19970;-74
2022/06/24 02:17:24;;;;;;;;;;;;;;;17.67;93.13;98581.56;7793057;30;20026;-74
2022/06/24 02:21:26;;;;;;;;;;;;;;;17.63;92.93;98586.09;7801119;30;19935;-74
2022/06/24 02:25:27;;;;;;;;;;;;;;;17.69;93.43;98579.75;7797398;30;19981;-74
2022/06/24 02:29:29;;;;;;;;;;;;;;;17.76;93.05;98570.66;7800465;30;19934;-75
2022/06/24 02:33:30;;;;;;;;;;;;;;;17.74;93.02;98565.47;7782618;30;19985;-74
2022/06/24 02:37:32;;;;;;;;;;;;;;;17.71;92.88;98575.28;7800315;30;19945;-74
2022/06/24 02:41:33;;;;;;;;;;;;;;;17.69;92.86;98566.63;7784085;30;19934;-74
2022/06/24 02:45:35;;;;;;;;;;;;;;;17.66;93.00;98579.88;7796777;30;19978;-74
2022/06/24 02:49:36;;;;;;;;;;;;;;;17.62;93.53;98570.44;7800886;30;19941;-74
2022/06/24 02:53:38;;;;;;;;;;;;;;;17.65;93.87;98578.16;7800827;30;20249;-74
2022/06/24 02:57:39;;;;;;;;;;;;;;;17.58;93.74;98568.84;7801547;30;20241;-75
2022/06/24 03:01:41;;;;;;;;;;;;;;;17.63;93.62;98574.75;7794224;30;19934;-74
2022/06/24 03:05:43;;;;;;;;;;;;;;;17.71;93.70;98572.66;7790711;30;20354;-74
2022/06/24 03:09:44;;;;;;;;;;;;;;;17.74;93.76;98568.09;7796693;30;19935;-74
2022/06/24 03:13:46;;;;;;;;;;;;;;;17.67;93.63;98574.53;7795590;30;20297;-73
2022/06/24 03:17:48;;;;;;;;;;;;;;;17.64;93.67;98579.09;7796892;30;20431;-74
2022/06/24 03:21:49;;;;;;;;;;;;;;;17.60;94.01;98585.41;7770947;30;19970;-74
2022/06/24 03:25:50;;;;;;;;;;;;;;;17.59;94.05;98584.53;7799214;30;19974;-74
2022/06/24 03:29:52;;;;;;;;;;;;;;;17.62;93.84;98576.53;7789271;30;19931;-75
2022/06/24 03:33:55;;;;;;;;;;;;;;;17.67;93.55;98585.03;7785623;30;19939;-75
2022/06/24 03:37:57;;;;;;;;;;;;;;;17.69;93.56;98577.97;7802327;30;19934;-75
2022/06/24 03:41:58;;;;;;;;;;;;;;;17.71;93.68;98583.16;7786789;30;20412;-75
2022/06/24 03:46:02;;;;;;;;;;;;;;;17.71;93.77;98585.78;7780230;30;19957;-75
2022/06/24 03:50:04;;;;;;;;;;;;;;;17.69;93.51;98580.59;7798006;30;19935;-75
2022/06/24 03:54:06;;;;;;;;;;;;;;;17.65;93.12;98576.38;7786717;30;19935;-75
2022/06/24 03:58:07;;;;;;;;;;;;;;;17.58;93.36;98574.09;7792948;30;20493;-75
2022/06/24 04:02:09;;;;;;;;;;;;;;;17.58;93.29;98581.97;7794188;30;20029;-75
2022/06/24 04:06:10;;;;;;;;;;;;;;;17.56;93.79;98582.03;7782755;30;20644;-75
2022/06/24 04:10:11;;;;;;;;;;;;;;;17.58;93.77;98581.97;7785477;30;19950;-75
2022/06/24 04:14:13;;;;;;;;;;;;;;;17.60;93.75;98574.91;7774582;30;20250;-75
2022/06/24 04:18:15;;;;;;;;;;;;;;;17.56;93.30;98575.94;7794318;30;20594;-75
2022/06/24 04:22:16;;;;;;;;;;;;;;;17.49;93.32;98576.22;7798080;30;20818;-75
2022/06/24 04:26:18;;;;;;;;;;;;;;;17.47;93.27;98591.19;7800046;30;19935;-75
2022/06/24 04:30:20;;;;;;;;;;;;;;;17.43;93.72;98594.03;7793225;30;19935;-75
2022/06/24 04:34:21;;;;;;;;;;;;;;;17.41;94.03;98603.72;7800756;30;20296;-75
2022/06/24 04:38:23;;;;;;;;;;;;;;;17.46;93.77;98600.00;7798883;30;19939;-75
2022/06/24 04:42:25;;;;;;;;;;;;;;;17.49;93.83;98591.97;7796222;30;19934;-76
2022/06/24 04:46:26;;;;;;;;;;;;;;;17.53;93.35;98587.44;7794118;30;20376;-75
2022/06/24 04:50:28;;;;;;;;;;;;;;;17.53;93.40;98588.28;7795853;30;19946;-75
2022/06/24 04:54:30;;;;;;;;;;;;;;;17.52;93.20;98591.00;7781589;30;19946;-75
2022/06/24 04:58:31;;;;;;;;;;;;;;;17.53;93.16;98592.69;7802179;30;20306;-75
2022/06/24 05:02:32;;;;;;;;;;;;;;;17.55;93.14;98596.09;7794751;30;20025;-76
2022/06/24 05:06:34;;;;;;;;;;;;;;;17.58;93.33;98589.84;7798399;30;20029;-75
2022/06/24 05:10:36;;;;;;;;;;;;;;;17.66;93.10;98598.25;7786682;30;19993;-76
2022/06/24 05:14:37;;;;;;;;;;;;;;;17.73;93.01;98602.31;7799121;30;20355;-75
2022/06/24 05:18:46;;;;;;;;;;;;;;;17.75;92.62;98603.94;7794925;30;20033;-75
2022/06/24 05:22:47;;;;;;;;;;;;;;;17.80;92.33;98609.00;7794130;30;20018;-75
2022/06/24 05:26:49;;;;;;;;;;;;;;;17.80;92.35;98607.22;7779550;30;20421;-74
2022/06/24 05:30:57;;;;;;;;;;;;;;;17.78;92.60;98600.34;7774893;30;19942;-74
2022/06/24 05:34:58;;;;;;;;;;;;;;;17.80;92.81;98601.13;7796733;30;19977;-74
2022/06/24 05:39:03;;;;;;;;;;;;;;;17.90;93.53;98588.41;7781589;30;19978;-74
2022/06/24 05:43:04;;;;;;;;;;;;;;;18.02;93.72;98586.06;7798303;30;20248;-73
2022/06/24 05:47:06;;;;;;;;;;;;;;;18.12;93.73;98589.94;7789767;30;19934;-74
2022/06/24 05:51:08;;;;;;;;;;;;;;;18.18;92.96;98591.44;7794749;30;19945;-74
2022/06/24 05:55:10;;;;;;;;;;;;;;;18.30;92.72;98588.19;7797987;30;20318;-75
2022/06/24 05:59:12;;;;;;;;;;;;;;;18.47;92.76;98603.13;7796791;30;20333;-75
2022/06/24 06:03:13;;;;;;;;;;;;;;;18.56;91.70;98596.59;7794357;30;19942;-75
2022/06/24 06:07:16;;;;;;;;;;;;;;;19.20;88.97;98585.44;7797172;30;19934;-75
2022/06/24 06:11:19;;;;;;;;;;;;;;;20.04;83.86;98594.97;7795805;30;19977;-76
2022/06/24 06:15:21;;;;;;;;;;;;;;;20.80;80.68;98598.50;7793243;30;19950;-76
2022/06/24 06:19:22;;;;;;;;;;;;;;;21.31;78.92;98574.41;7778988;30;20018;-76
2022/06/24 06:23:24;;;;;;;;;;;;;;;21.61;76.49;98571.66;7781374;30;20298;-76
2022/06/24 06:27:25;;;;;;;;;;;;;;;22.05;74.68;98573.31;7781590;30;20358;-76
2022/06/24 06:31:26;;;;;;;;;;;;;;;22.43;71.86;98576.94;7789933;30;19966;-77
2022/06/24 06:35:28;;;;;;;;;;;;;;;22.50;70.86;98577.41;7795721;30;19939;-76
2022/06/24 06:39:29;;;;;;;;;;;;;;;22.07;72.90;98588.13;7794593;30;19962;-78
2022/06/24 06:43:31;;;;;;;;;;;;;;;22.15;72.69;98585.84;7784479;30;20037;-75
2022/06/24 06:47:33;;;;;;;;;;;;;;;22.27;73.13;98585.06;7791317;30;20054;-76
2022/06/24 06:51:35;;;;;;;;;;;;;;;22.55;72.87;98581.44;7781131;30;19939;-77
2022/06/24 06:55:36;;;;;;;;;;;;;;;22.23;72.63;98593.28;7774019;30;19977;-75
2022/06/24 06:59:38;;;;;;;;;;;;;;;22.21;73.82;98595.19;7770661;30;19945;-78
2022/06/24 07:03:39;;;;;;;;;;;;;;;22.26;73.06;98591.31;7789122;30;20022;-77
2022/06/24 07:07:41;;;;;;;;;;;;;;;22.33;71.98;98582.97;7778006;30;19969;-77
2022/06/24 07:11:42;;;;;;;;;;;;;;;22.41;70.19;98588.59;7794961;30;19990;-76
2022/06/24 07:15:43;;;;;;;;;;;;;;;22.79;70.31;98592.19;7784553;30;20399;-77
2022/06/24 07:19:46;;;;;;;;;;;;;;;23.12;69.38;98598.84;7792759;30;19945;-77
2022/06/24 07:23:47;;;;;;;;;;;;;;;23.40;67.81;98603.09;7814136;30;19931;-77
2022/06/24 07:27:49;;;;;;;;;;;;;;;23.74;66.30;98602.47;7791577;30;19946;-77
2022/06/24 07:31:50;;;;;;;;;;;;;;;23.85;67.59;98598.19;7802913;30;20357;-77
2022/06/24 07:35:57;;;;;;;;;;;;;;;23.97;65.02;98605.28;7792180;30;19946;-76
2022/06/24 07:39:59;;;;;;;;;;;;;;;24.11;65.15;98590.06;7808086;30;20025;-78
2022/06/24 07:44:00;;;;;;;;;;;;;;;24.40;64.39;98595.91;7803654;30;19935;-77
2022/06/24 07:48:02;;;;;;;;;;;;;;;24.30;60.57;98599.38;7792079;30;19934;-77
2022/06/24 07:52:04;;;;;;;;;;;;;;;24.18;61.82;98585.16;7799857;30;19939;-77
2022/06/24 08:00:25;;;;;;;;;;;;;;;24.83;61.71;98586.56;7795721;30;20022;-77
2022/06/24 08:04:30;;;;;;;;;;;;;;;25.23;59.54;98581.72;7789893;30;20349;-77
2022/06/24 08:08:32;;;;;;;;;;;;;;;25.28;59.07;98588.38;7781216;30;20316;-77
2022/06/24 08:12:33;;;;;;;;;;;;;;;24.85;58.11;98592.59;7774077;30;19947;-77
2022/06/24 08:16:35;;;;;;;;;;;;;;;24.37;58.77;98593.47;7777576;30;19946;-76
2022/06/24 08:20:36;;;;;;;;;;;;;;;24.09;60.40;98584.03;7786099;30;19997;-77
2022/06/24 08:24:38;;;;;;;;;;;;;;;23.97;60.72;98574.28;7798780;30;20360;-77
2022/06/24 08:29:00;;;;;;;;;;;;;;;24.03;61.04;98559.72;7792575;30;19957;-77
2022/06/24 08:33:02;;;;;;;;;;;;;;;24.38;60.02;98560.69;7782419;30;20769;-78
2022/06/24 08:37:04;;;;;;;;;;;;;;;24.20;57.19;98566.47;7800757;30;20341;-78
2022/06/24 08:41:06;;;;;;;;;;;;;;;24.10;58.96;98568.97;7796594;30;19970;-78
2022/06/24 08:45:07;;;;;;;;;;;;;;;23.80;58.50;98572.00;7789530;30;19946;-78
2022/06/24 08:49:09;;;;;;;;;;;;;;;23.71;58.90;98562.91;7785471;30;19931;-78
2022/06/24 08:53:11;;;;;;;;;;;;;;;24.13;58.69;98559.94;7793836;30;19931;-78
2022/06/24 08:57:13;;;;;;;;;;;;;;;24.76;57.18;98548.16;7783768;30;20229;-77
2022/06/24 09:01:18;;;;;;;;;;;;;;;25.18;54.42;98541.41;7779624;30;20323;-77
2022/06/24 09:05:20;;;;;;;;;;;;;;;25.60;53.12;98545.97;7798167;30;19939;-77
2022/06/24 09:09:25;;;;;;;;;;;;;;;26.29;52.66;98542.25;7791710;30;19935;-78
2022/06/24 09:13:27;;;;;;;;;;;;;;;26.67;51.08;98539.09;7780942;30;20617;-78
2022/06/24 09:17:29;;;;;;;;;;;;;;;26.82;49.61;98536.97;7790595;30;19981;-77
2022/06/24 09:21:34;;;;;;;;;;;;;;;27.06;49.30;98524.22;7772569;30;20599;-79
2022/06/24 09:25:48;;;;;;;;;;;;;;;26.71;49.54;98525.38;7792930;30;20578;-78
2022/06/24 09:29:49;;;;;;;;;;;;;;;27.17;49.72;98518.00;7802950;30;19961;-78
2022/06/24 09:33:52;;;;;;;;;;;;;;;27.39;45.78;98523.97;7795516;30;19945;-78
2022/06/24 09:37:53;;;;;;;;;;;;;;;27.53;48.21;98519.28;7798965;30;19946;-77
2022/06/24 09:41:55;;;;;;;;;;;;;;;27.73;44.98;98525.53;7798451;30;19939;-78
2022/06/24 09:45:57;;;;;;;;;;;;;;;27.93;45.51;98522.78;7784158;30;19942;-78
2022/06/24 09:49:59;;;;;;;;;;;;;;;28.19;45.32;98524.94;7786227;30;19935;-78
2022/06/24 09:54:03;;;;;;;;;;;;;;;28.26;44.28;98515.41;7800777;30;19934;-77
2022/06/24 09:58:04;;;;;;;;;;;;;;;28.36;45.82;98508.22;7796665;30;19974;-78
2022/06/24 10:02:11;;;;;;;;;;;;;;;28.21;45.59;98515.81;7767318;30;19982;-79
2022/06/24 10:06:21;;;;;;;;;;;;;;;27.33;44.33;98521.88;7785887;30;20351;-79
2022/06/24 10:10:24;;;;;;;;;;;;;;;26.67;46.07;98517.78;7791378;30;19988;-79
2022/06/24 10:14:27;;;;;;;;;;;;;;;26.17;48.34;98517.47;7771471;30;19945;-79
2022/06/24 10:18:32;;;;;;;;;;;;;;;26.33;48.07;98503.75;7780952;30;20246;-78
2022/06/24 10:22:44;;;;;;;;;;;;;;;26.16;48.03;98492.69;7794794;30;20049;-79
2022/06/24 10:26:47;;;;;;;;;;;;;;;26.55;46.81;98509.00;7793926;30;19942;-79
2022/06/24 10:30:53;;;;;;;;;;;;;;;26.58;48.18;98502.59;7800106;30;19961;-78
2022/06/24 10:34:56;;;;;;;;;;;;;;;26.82;47.14;98489.84;7781733;30;20026;-79
2022/06/24 10:39:11;;;;;;;;;;;;;;;27.12;44.62;98486.41;7784884;30;19946;-79
2022/06/24 10:43:13;;;;;;;;;;;;;;;27.27;43.11;98501.03;7796310;30;19934;-80
2022/06/24 10:47:14;;;;;;;;;;;;;;;26.92;44.12;98488.06;7768760;30;19935;-79
2022/06/24 10:51:20;;;;;;;;;;;;;;;26.85;45.84;98491.41;7772537;30;19946;-79
2022/06/24 10:55:23;;;;;;;;;;;;;;;27.06;45.26;98497.59;7790401;30;19992;-79
2022/06/24 10:59:25;;;;;;;;;;;;;;;27.49;42.78;98491.19;7786555;30;20661;-79
2022/06/24 11:03:28;;;;;;;;;;;;;;;27.43;43.86;98494.38;7774175;30;19989;-78
2022/06/24 11:07:30;;;;;;;;;;;;;;;27.13;42.03;98484.59;7789010;30;19945;-78
2022/06/24 11:11:32;;;;;;;;;;;;;;;27.03;42.55;98471.22;7774499;30;20345;-78
2022/06/24 11:15:37;;;;;;;;;;;;;;;27.51;42.88;98468.72;7784248;30;19975;-77
2022/06/24 11:19:40;;;;;;;;;;;;;;;27.86;42.57;98472.78;7794090;30;20081;-79
2022/06/24 11:23:41;;;;;;;;;;;;;;;28.39;43.21;98469.75;7797090;30;19935;-79
2022/06/24 11:27:43;;;;;;;;;;;;;;;28.56;41.61;98461.00;7796969;30;19950;-78
2022/06/24 11:31:44;;;;;;;;;;;;;;;28.60;40.56;98462.41;7776787;30;19945;-78
2022/06/24 11:35:47;;;;;;;;;;;;;;;28.21;41.08;98465.06;7772662;30;19938;-78
2022/06/24 11:39:55;;;;;;;;;;;;;;;27.58;42.03;98475.19;7780767;30;20442;-76
2022/06/24 11:43:56;;;;;;;;;;;;;;;26.74;45.21;98479.84;7769861;30;19938;-77
2022/06/24 11:47:58;;;;;;;;;;;;;;;25.51;53.53;98533.44;7786533;30;20338;-78
2022/06/24 11:52:00;;;;;;;;;;;;;;;24.08;62.04;98513.38;7776655;30;19985;-76
2022/06/24 11:56:02;;;;;;;;;;;;;;;23.28;68.35;98511.22;7792025;30;19998;-77
2022/06/24 12:00:04;;;;;;;;;;;;;;;22.66;70.54;98525.16;7781044;30;20065;-76
2022/06/24 12:04:07;;;;;;;;;;;;;;;22.07;72.72;98534.38;7771270;30;19935;-74
2022/06/24 12:08:09;;;;;;;;;;;;;;;21.82;76.43;98521.88;7783017;30;20680;-75
2022/06/24 12:12:11;;;;;;;;;;;;;;;21.75;77.69;98531.16;7788560;30;20264;-75
2022/06/24 12:16:13;;;;;;;;;;;;;;;21.54;79.10;98541.28;7783150;30;20343;-73
2022/06/24 12:20:22;;;;;;;;;;;;;;;21.42;81.23;98524.41;7787216;30;20510;-74
2022/06/24 12:24:25;;;;;;;;;;;;;;;21.45;80.74;98534.78;7787848;30;20005;-75
2022/06/24 12:28:27;;;;;;;;;;;;;;;21.46;82.59;98527.72;7785081;30;20503;-75
2022/06/24 12:32:46;;;;;;;;;;;;;;;21.49;83.87;98528.34;7773477;30;19970;-75
2022/06/24 12:36:54;;;;;;;;;;;;;;;21.41;83.03;98528.84;7777028;30;19939;-75
2022/06/24 12:41:09;;;;;;;;;;;;;;;21.33;83.68;98519.69;7795009;30;19945;-75
2022/06/24 12:45:22;;;;;;;;;;;;;;;21.29;84.92;98518.19;7773841;30;19939;-75
2022/06/24 12:53:49;;;;;;;;;;;;;;;21.03;84.09;98538.25;7793949;30;20348;-74
2022/06/24 12:57:50;;;;;;;;;;;;;;;20.85;83.88;98550.75;7775880;30;20626;-74
2022/06/24 13:01:52;;;;;;;;;;;;;;;20.74;85.64;98543.47;7789086;30;19935;-72
2022/06/24 13:05:53;;;;;;;;;;;;;;;20.65;83.85;98551.94;7792233;30;20333;-72
2022/06/24 13:09:55;;;;;;;;;;;;;;;20.42;83.53;98590.19;7793352;30;20045;-72
2022/06/24 13:13:56;;;;;;;;;;;;;;;20.14;82.95;98577.69;7790306;30;19938;-72
2022/06/24 13:17:58;;;;;;;;;;;;;;;20.05;84.22;98569.44;7791617;30;19934;-75
2022/06/24 13:22:00;;;;;;;;;;;;;;;19.94;84.14;98559.53;7794277;30;19989;-74
2022/06/24 13:26:02;;;;;;;;;;;;;;;19.96;86.20;98554.16;7776786;30;19946;-75
2022/06/24 13:30:04;;;;;;;;;;;;;;;20.00;86.08;98547.78;7773881;30;19981;-75
2022/06/24 13:34:06;;;;;;;;;;;;;;;20.10;86.34;98555.06;7789279;30;19935;-74
2022/06/24 13:38:07;;;;;;;;;;;;;;;20.06;87.47;98555.34;7781718;30;19945;-74
2022/06/24 13:42:09;;;;;;;;;;;;;;;19.99;86.89;98565.38;7789399;30;19943;-74
2022/06/24 13:46:10;;;;;;;;;;;;;;;19.82;84.49;98568.09;7788080;30;19934;-74
2022/06/24 13:50:12;;;;;;;;;;;;;;;19.66;84.89;98581.25;7789207;30;19935;-74
2022/06/24 13:54:13;;;;;;;;;;;;;;;19.37;85.38;98574.03;7797348;30;19935;-75
2022/06/24 13:58:15;;;;;;;;;;;;;;;19.35;86.86;98562.72;7778968;30;20312;-74
2022/06/24 14:02:17;;;;;;;;;;;;;;;19.40;88.54;98558.09;7789723;30;19938;-76
2022/06/24 14:06:29;;;;;;;;;;;;;;;19.45;89.92;98569.22;7793234;30;19934;-76
2022/06/24 14:10:31;;;;;;;;;;;;;;;19.41;88.79;98575.59;7774591;30;20045;-75
2022/06/24 14:14:33;;;;;;;;;;;;;;;19.45;89.31;98583.22;7774430;30;19935;-75
2022/06/24 14:18:35;;;;;;;;;;;;;;;19.45;88.45;98587.66;7774329;30;19935;-74
2022/06/24 14:22:37;;;;;;;;;;;;;;;19.45;87.92;98580.59;7796019;30;19958;-74
2022/06/24 14:26:39;;;;;;;;;;;;;;;19.58;88.35;98586.94;7791464;30;19935;-75
2022/06/24 14:30:40;;;;;;;;;;;;;;;19.76;88.37;98593.00;7787221;30;19935;-74
2022/06/24 14:34:42;;;;;;;;;;;;;;;19.97;89.18;98588.34;7794157;30;20258;-74
2022/06/24 14:43:03;;;;;;;;;;;;;;;20.04;86.76;98587.06;7797132;30;19935;-74
2022/06/24 14:47:05;;;;;;;;;;;;;;;20.07;87.37;98586.03;7787699;30;19934;-74
2022/06/24 14:51:07;;;;;;;;;;;;;;;19.98;88.06;98583.91;7788239;30;20265;-76
2022/06/24 14:55:09;;;;;;;;;;;;;;;19.90;88.61;98582.53;7782007;30;19935;-75
2022/06/24 14:59:11;;;;;;;;;;;;;;;19.85;89.34;98584.59;7791013;30;19978;-75
2022/06/24 15:03:12;;;;;;;;;;;;;;;19.77;88.59;98578.06;7768052;30;20360;-75
2022/06/24 15:07:13;;;;;;;;;;;;;;;19.72;88.83;98580.91;7769706;30;19942;-74
2022/06/24 15:11:15;;;;;;;;;;;;;;;19.65;88.01;98582.19;7785250;30;20728;-74
2022/06/24 15:15:16;;;;;;;;;;;;;;;19.57;88.61;98574.72;7765633;30;19935;-72
2022/06/24 15:19:18;;;;;;;;;;;;;;;19.51;89.52;98582.91;7778316;30;19939;-71
2022/06/24 15:23:19;;;;;;;;;;;;;;;19.45;89.58;98585.00;7790592;30;20652;-73
2022/06/24 15:27:21;;;;;;;;;;;;;;;19.45;89.90;98579.75;7785835;30;20045;-73
2022/06/24 15:31:23;;;;;;;;;;;;;;;19.38;88.10;98573.94;7786304;30;19939;-72
2022/06/24 15:35:26;;;;;;;;;;;;;;;19.28;86.99;98576.22;7783715;30;19935;-73
2022/06/24 15:39:28;;;;;;;;;;;;;;;19.21;87.35;98584.50;7789609;30;19946;-73
2022/06/24 15:43:29;;;;;;;;;;;;;;;19.07;86.80;98589.66;7791810;30;19970;-71
2022/06/24 15:47:31;;;;;;;;;;;;;;;18.99;87.80;98582.16;7788761;30;20008;-73
2022/06/24 15:51:33;;;;;;;;;;;;;;;18.95;88.18;98591.97;7791469;30;19935;-74
2022/06/24 15:55:34;;;;;;;;;;;;;;;18.95;88.00;98588.50;7784384;30;19935;-74
2022/06/24 15:59:36;;;;;;;;;;;;;;;18.96;88.13;98591.06;7790708;30;19941;-74
2022/06/24 16:03:37;;;;;;;;;;;;;;;19.18;89.63;98593.41;7783363;30;20034;-74
2022/06/24 16:07:39;;;;;;;;;;;;;;;19.42;89.70;98590.44;7784081;30;19935;-74
2022/06/24 16:12:27;;;;;;;;;;;;;;;19.60;88.69;98587.72;7783051;30;20333;-74
2022/06/24 16:16:03;;;;;;;;;;;;;;;19.78;88.31;98596.41;7768513;30;19941;-75
2022/06/24 16:20:05;;;;;;;;;;;;;;;19.84;87.62;98603.97;7789037;30;20741;-75
2022/06/24 16:24:11;;;;;;;;;;;;;;;19.88;87.52;98609.91;7788834;30;20000;-75
2022/06/24 16:32:32;;;;;;;;;;;;;;;19.89;87.12;98611.59;7789906;30;19946;-76
2022/06/24 16:36:34;;;;;;;;;;;;;;;19.90;87.83;98608.88;7767534;30;19982;-75
2022/06/24 16:40:35;;;;;;;;;;;;;;;19.95;87.42;98613.94;7759563;30;19946;-75
2022/06/24 16:44:37;;;;;;;;;;;;;;;20.02;87.36;98619.69;7764324;30;20009;-76
2022/06/24 16:48:39;;;;;;;;;;;;;;;20.07;87.95;98618.50;7760390;30;19936;-76
2022/06/24 16:52:40;;;;;;;;;;;;;;;20.17;88.05;98626.75;7766699;30;19942;-76
2022/06/24 16:56:42;;;;;;;;;;;;;;;20.30;88.04;98637.47;7768024;30;19985;-76
2022/06/24 17:00:43;;;;;;;;;;;;;;;20.44;89.54;98627.88;7770925;30;20034;-75
2022/06/24 17:04:45;;;;;;;;;;;;;;;20.55;89.69;98635.19;7766795;30;20042;-76
2022/06/24 17:08:46;;;;;;;;;;;;;;;20.59;89.59;98634.06;7767626;30;20621;-74
2022/06/24 17:12:54;;;;;;;;;;;;;;;20.56;88.50;98646.56;7763109;30;20572;-75
2022/06/24 17:16:55;;;;;;;;;;;;;;;20.47;87.77;98650.59;7757581;30;19935;-75
2022/06/24 17:20:56;;;;;;;;;;;;;;;20.44;86.96;98653.38;7765966;30;20738;-75
2022/06/24 17:24:58;;;;;;;;;;;;;;;20.33;86.87;98650.50;7758847;30;19943;-75
2022/06/24 17:29:00;;;;;;;;;;;;;;;20.30;87.18;98655.94;7758815;30;19945;-75
2022/06/24 17:33:01;;;;;;;;;;;;;;;20.20;86.40;98663.50;7749617;30;19978;-75
2022/06/24 17:37:03;;;;;;;;;;;;;;;20.13;87.58;98662.13;7792376;30;19993;-75
2022/06/24 17:41:10;;;;;;;;;;;;;;;20.09;87.73;98676.41;7785409;30;19930;-75
2022/06/24 17:45:12;;;;;;;;;;;;;;;20.05;88.63;98674.88;7785312;30;19935;-75
2022/06/24 17:49:13;;;;;;;;;;;;;;;20.02;88.75;98675.03;7770182;30;19970;-74
2022/06/24 17:53:14;;;;;;;;;;;;;;;20.00;88.16;98671.66;7783250;30;19935;-76
2022/06/24 17:57:16;;;;;;;;;;;;;;;19.94;87.17;98686.00;7772475;30;19978;-76
2022/06/24 18:01:17;;;;;;;;;;;;;;;19.88;87.05;98686.31;7790824;30;19939;-76
2022/06/24 18:05:19;;;;;;;;;;;;;;;19.79;86.91;98686.81;7770793;30;20569;-76
2022/06/24 18:09:20;;;;;;;;;;;;;;;19.84;86.58;98684.78;7777009;30;19935;-76
2022/06/24 18:13:22;;;;;;;;;;;;;;;19.86;85.83;98688.19;7790546;30;19973;-75
2022/06/24 18:17:23;;;;;;;;;;;;;;;19.80;84.11;98691.16;7789430;30;19970;-75
2022/06/24 18:21:25;;;;;;;;;;;;;;;19.47;81.00;98699.84;7793382;30;19970;-75
2022/06/24 18:25:26;;;;;;;;;;;;;;;19.25;81.17;98701.91;7764516;30;19977;-75
2022/06/24 18:29:28;;;;;;;;;;;;;;;19.11;81.37;98701.72;7778454;30;20247;-75
2022/06/24 18:33:29;;;;;;;;;;;;;;;18.92;81.90;98714.94;7789845;30;19935;-75
2022/06/24 18:37:31;;;;;;;;;;;;;;;18.65;80.85;98730.28;7791813;30;19945;-75
2022/06/24 18:41:33;;;;;;;;;;;;;;;18.50;81.42;98723.09;7776822;30;19935;-76
2022/06/24 18:45:35;;;;;;;;;;;;;;;18.28;81.46;98723.22;7790165;30;20422;-76
2022/06/24 18:49:36;;;;;;;;;;;;;;;18.17;82.20;98730.78;7787722;30;20022;-76
2022/06/24 18:53:38;;;;;;;;;;;;;;;18.10;82.49;98738.91;7778700;30;19938;-77
2022/06/24 18:57:39;;;;;;;;;;;;;;;18.05;83.57;98740.06;7782115;30;20014;-77
2022/06/24 19:01:41;;;;;;;;;;;;;;;17.95;84.66;98750.09;7792316;30;19978;-77
2022/06/24 19:05:42;;;;;;;;;;;;;;;17.87;84.71;98759.25;7778279;30;20037;-77
2022/06/24 19:09:43;;;;;;;;;;;;;;;17.80;86.03;98764.78;7777293;30;19935;-76
2022/06/24 19:13:45;;;;;;;;;;;;;;;17.75;86.58;98765.91;7791272;30;19989;-76
2022/06/24 19:17:47;;;;;;;;;;;;;;;17.68;87.08;98769.72;7776693;30;20385;-75
2022/06/24 19:21:49;;;;;;;;;;;;;;;17.62;87.58;98770.81;7773882;30;20025;-75
2022/06/24 19:25:50;;;;;;;;;;;;;;;17.58;88.37;98771.00;7772075;30;19966;-75
2022/06/24 19:29:54;;;;;;;;;;;;;;;17.46;88.69;98786.34;7791307;30;20026;-76
2022/06/24 19:33:56;;;;;;;;;;;;;;;17.37;88.88;98791.97;7788006;30;19966;-76
2022/06/24 19:37:57;;;;;;;;;;;;;;;17.31;89.93;98799.25;7772761;30;19946;-77
2022/06/24 19:41:59;;;;;;;;;;;;;;;17.28;90.49;98802.88;7787673;30;19984;-76
2022/06/24 19:46:00;;;;;;;;;;;;;;;17.21;91.15;98809.25;7766541;30;19946;-76
2022/06/24 19:50:03;;;;;;;;;;;;;;;17.16;92.34;98804.22;7776607;30;20409;-76
2022/06/24 19:54:05;;;;;;;;;;;;;;;17.04;92.36;98809.94;7776663;30;19935;-76
2022/06/24 19:58:07;;;;;;;;;;;;;;;16.96;92.53;98824.28;7788578;30;19941;-76
2022/06/24 20:06:29;;;;;;;;;;;;;;;16.80;93.23;98832.75;7787688;30;19938;-76
2022/06/24 20:10:30;;;;;;;;;;;;;;;16.72;93.26;98834.81;7788800;30;19934;-76
2022/06/24 20:14:33;;;;;;;;;;;;;;;16.50;92.78;98845.19;7789245;30;20730;-76
2022/06/24 20:18:34;;;;;;;;;;;;;;;16.43;93.49;98853.38;7782322;30;20328;-75
2022/06/24 20:22:37;;;;;;;;;;;;;;;16.38;93.94;98858.78;7772709;30;20025;-75
2022/06/24 20:26:42;;;;;;;;;;;;;;;16.36;94.63;98857.13;7758543;30;20000;-75
2022/06/24 20:30:44;;;;;;;;;;;;;;;16.31;94.54;98859.88;7788655;30;20042;-75
2022/06/24 20:34:46;;;;;;;;;;;;;;;16.32;94.86;98864.22;7794756;30;19973;-75
2022/06/24 20:38:48;;;;;;;;;;;;;;;16.26;95.21;98862.69;7779924;30;20411;-75
2022/06/24 20:42:49;;;;;;;;;;;;;;;16.24;95.23;98866.28;7780497;30;19986;-75
2022/06/24 20:46:50;;;;;;;;;;;;;;;16.20;94.94;98860.28;7792711;30;19945;-75
2022/06/24 20:50:53;;;;;;;;;;;;;;;16.26;95.52;98869.69;7792087;30;20391;-75
2022/06/24 20:54:55;;;;;;;;;;;;;;;16.31;95.94;98873.00;7766265;30;19981;-74
2022/06/24 20:58:57;;;;;;;;;;;;;;;16.27;95.24;98867.00;7773535;30;19942;-74
2022/06/24 21:02:59;;;;;;;;;;;;;;;16.20;95.36;98862.91;7789635;30;19939;-74
2022/06/24 21:07:00;;;;;;;;;;;;;;;16.19;95.41;98871.69;7780279;30;20009;-74
2022/06/24 21:11:01;;;;;;;;;;;;;;;16.17;95.25;98870.88;7794925;30;19966;-74
2022/06/24 21:15:03;;;;;;;;;;;;;;;16.17;95.24;98873.50;7792715;30;19946;-73
2022/06/24 21:19:04;;;;;;;;;;;;;;;16.14;95.14;98875.34;7794181;30;19941;-73
2022/06/24 21:23:06;;;;;;;;;;;;;;;16.08;94.88;98884.28;7792386;30;19977;-73
2022/06/24 21:27:07;;;;;;;;;;;;;;;16.01;94.99;98886.28;7778766;30;19946;-73
2022/06/24 21:31:08;;;;;;;;;;;;;;;15.97;94.86;98879.41;7775134;30;19941;-73